createdAt,value
2022-12-09T00:01:14.154Z,42.42
2022-12-09T00:03:42.826Z,42.46
2022-12-09T00:06:14.428Z,42.40
2022-12-09T00:08:42.282Z,42.25
2022-12-09T00:11:10.610Z,42.49
2022-12-09T00:13:38.484Z,42.37
2022-12-09T00:16:08.719Z,42.43
2022-12-09T00:18:36.698Z,42.44
2022-12-09T00:21:25.125Z,42.42
2022-12-09T00:23:54.229Z,42.44
2022-12-09T00:26:22.830Z,42.54
2022-12-09T00:28:51.444Z,42.39
2022-12-09T00:31:24.393Z,42.33
2022-12-09T00:33:54.948Z,42.43
2022-12-09T00:36:23.213Z,42.45
2022-12-09T00:38:51.990Z,42.52
2022-12-09T00:41:19.821Z,42.39
2022-12-09T00:43:47.817Z,42.39
2022-12-09T00:46:15.747Z,42.58
2022-12-09T00:48:45.486Z,42.54
2022-12-09T00:51:15.737Z,42.51
2022-12-09T00:53:43.995Z,42.44
2022-12-09T00:56:11.559Z,42.54
2022-12-09T00:58:39.515Z,42.55
2022-12-09T01:01:06.821Z,42.63
2022-12-09T01:03:35.454Z,42.49
2022-12-09T01:06:12.136Z,42.48
2022-12-09T01:08:40.230Z,42.71
2022-12-09T01:11:12.659Z,42.56
2022-12-09T01:13:40.797Z,42.45
2022-12-09T01:16:24.807Z,42.60
2022-12-09T01:18:54.618Z,42.57
2022-12-09T01:21:22.221Z,42.58
2022-12-09T01:23:50.041Z,42.58
2022-12-09T01:26:17.419Z,42.61
2022-12-09T01:28:45.126Z,42.57
2022-12-09T01:31:18.021Z,42.58
2022-12-09T01:33:46.419Z,42.60
2022-12-09T01:36:16.382Z,42.61
2022-12-09T01:38:44.815Z,42.55
2022-12-09T01:41:12.808Z,42.60
2022-12-09T01:43:41.427Z,42.80
2022-12-09T01:46:09.288Z,42.67
2022-12-09T01:48:40.333Z,42.65
2022-12-09T01:51:16.879Z,42.70
2022-12-09T01:53:47.705Z,42.89
2022-12-09T01:56:29.331Z,42.92
2022-12-09T01:59:02.428Z,42.87
2022-12-09T02:01:30.027Z,42.96
2022-12-09T02:03:57.872Z,43.00
2022-12-09T02:06:25.870Z,42.87
2022-12-09T02:08:55.025Z,42.99
2022-12-09T02:11:40.094Z,43.07
2022-12-09T02:14:20.487Z,43.00
2022-12-09T02:16:59.881Z,43.10
2022-12-09T02:20:01.445Z,43.11
2022-12-09T02:22:55.741Z,43.12
2022-12-09T02:25:49.903Z,43.17
2022-12-09T02:28:39.402Z,43.05
2022-12-09T02:31:40.779Z,43.02
2022-12-09T02:34:19.893Z,43.03
2022-12-09T02:37:08.160Z,42.95
2022-12-09T02:39:45.290Z,43.01
2022-12-09T02:42:17.036Z,42.98
2022-12-09T02:44:48.332Z,43.13
2022-12-09T02:47:19.746Z,43.13
2022-12-09T02:49:55.287Z,43.13
2022-12-09T02:52:23.622Z,43.04
2022-12-09T02:54:51.982Z,43.05
2022-12-09T02:57:26.221Z,43.20
2022-12-09T02:59:53.756Z,43.12
2022-12-09T03:02:28.510Z,43.13
2022-12-09T03:05:09.416Z,43.24
2022-12-09T03:07:52.419Z,43.20
2022-12-09T03:10:34.348Z,43.25
2022-12-09T03:13:10.698Z,43.31
2022-12-09T03:15:42.261Z,43.23
2022-12-09T03:18:13.358Z,43.21
2022-12-09T03:20:44.027Z,43.09
2022-12-09T03:23:16.744Z,43.30
2022-12-09T03:25:48.969Z,43.20
2022-12-09T03:28:45.353Z,43.18
2022-12-09T03:31:20.846Z,43.17
2022-12-09T03:33:52.927Z,43.16
2022-12-09T03:36:22.683Z,43.28
2022-12-09T03:38:52.159Z,43.17
2022-12-09T03:41:32.748Z,43.41
2022-12-09T03:44:37.196Z,43.31
2022-12-09T03:47:06.969Z,43.26
2022-12-09T03:49:35.567Z,43.41
2022-12-09T03:52:21.024Z,43.08
2022-12-09T03:54:56.051Z,43.25
2022-12-09T03:57:24.408Z,43.16
2022-12-09T03:59:57.396Z,43.17
2022-12-09T04:02:24.884Z,43.26
2022-12-09T04:04:53.197Z,43.29
2022-12-09T04:07:20.775Z,43.34
2022-12-09T04:09:48.509Z,43.25
2022-12-09T04:12:16.867Z,43.22
2022-12-09T04:14:45.074Z,43.30
2022-12-09T04:17:12.771Z,43.31
2022-12-09T04:19:40.313Z,43.23
2022-12-09T04:22:07.932Z,43.30
2022-12-09T04:24:35.544Z,43.18
2022-12-09T04:27:03.023Z,43.12
2022-12-09T04:29:30.795Z,43.26
2022-12-09T04:31:58.269Z,43.12
2022-12-09T04:34:26.489Z,43.17
2022-12-09T04:36:54.217Z,43.24
2022-12-09T04:39:22.135Z,43.25
2022-12-09T04:41:49.395Z,43.26
2022-12-09T04:44:17.036Z,43.22
2022-12-09T04:46:44.469Z,43.09
2022-12-09T04:49:12.071Z,43.15
2022-12-09T04:51:40.284Z,43.24
2022-12-09T04:54:13.226Z,43.15
2022-12-09T04:56:41.769Z,43.22
2022-12-09T04:59:09.920Z,43.14
2022-12-09T05:01:37.871Z,43.18
2022-12-09T05:04:06.027Z,43.14
2022-12-09T05:06:34.020Z,43.27
2022-12-09T05:09:02.706Z,43.10
2022-12-09T05:11:30.505Z,43.23
2022-12-09T05:13:58.499Z,43.14
2022-12-09T05:16:26.342Z,43.05
2022-12-09T05:18:54.233Z,43.21
2022-12-09T05:21:22.465Z,43.15
2022-12-09T05:23:50.430Z,43.16
2022-12-09T05:26:20.132Z,43.15
2022-12-09T05:28:48.918Z,43.11
2022-12-09T05:31:19.985Z,43.12
2022-12-09T05:33:49.510Z,43.07
2022-12-09T05:36:19.556Z,43.14
2022-12-09T05:38:47.586Z,43.04
2022-12-09T05:41:15.328Z,43.13
2022-12-09T05:43:43.492Z,43.05
2022-12-09T05:46:11.484Z,43.01
2022-12-09T05:48:39.728Z,43.08
2022-12-09T05:51:18.025Z,42.98
2022-12-09T05:53:45.807Z,43.14
2022-12-09T05:56:18.755Z,42.94
2022-12-09T05:58:47.012Z,43.13
2022-12-09T06:01:15.522Z,43.37
2022-12-09T06:03:43.755Z,42.95
2022-12-09T06:06:14.874Z,43.06
2022-12-09T06:08:43.682Z,43.06
2022-12-09T06:11:21.962Z,43.04
2022-12-09T06:13:50.659Z,43.07
2022-12-09T06:16:20.734Z,43.05
2022-12-09T06:18:50.374Z,42.98
2022-12-09T06:21:20.692Z,43.08
2022-12-09T06:23:49.771Z,43.16
2022-12-09T06:26:22.938Z,43.23
2022-12-09T06:28:52.787Z,43.15
2022-12-09T06:31:20.668Z,43.28
2022-12-09T06:33:58.063Z,43.25
2022-12-09T06:36:28.870Z,43.34
2022-12-09T06:39:05.851Z,43.35
2022-12-09T06:41:37.189Z,43.47
2022-12-09T06:44:05.458Z,43.42
2022-12-09T06:46:33.080Z,43.48
2022-12-09T06:49:01.784Z,43.56
2022-12-09T06:51:29.496Z,43.74
2022-12-09T06:53:57.569Z,43.79
2022-12-09T06:56:25.492Z,43.62
2022-12-09T06:58:53.564Z,43.69
2022-12-09T07:01:24.298Z,43.58
2022-12-09T07:03:55.730Z,43.59
2022-12-09T07:06:31.136Z,43.58
2022-12-09T07:09:01.806Z,43.45
2022-12-09T07:11:30.055Z,43.54
2022-12-09T07:13:58.306Z,43.22
2022-12-09T07:16:26.229Z,42.68
2022-12-09T07:18:54.833Z,42.45
2022-12-09T07:21:24.003Z,42.34
2022-12-09T07:23:52.782Z,42.31
2022-12-09T07:26:21.432Z,42.34
2022-12-09T07:28:50.400Z,42.24
2022-12-09T07:31:28.573Z,42.37
2022-12-09T07:33:58.807Z,42.15
2022-12-09T07:36:28.975Z,42.50
2022-12-09T07:38:58.744Z,42.68
2022-12-09T07:41:26.661Z,42.68
2022-12-09T07:43:54.993Z,42.80
2022-12-09T07:46:24.228Z,42.77
2022-12-09T07:48:52.186Z,42.89
2022-12-09T07:51:20.431Z,42.97
2022-12-09T07:53:48.744Z,43.16
2022-12-09T07:56:17.887Z,43.05
2022-12-09T07:58:47.826Z,43.01
2022-12-09T08:01:18.354Z,43.11
2022-12-09T08:03:47.691Z,43.10
2022-12-09T08:06:19.397Z,42.87
2022-12-09T08:08:47.510Z,42.84
2022-12-09T08:11:25.352Z,42.93
2022-12-09T08:13:55.790Z,42.87
2022-12-09T08:16:23.986Z,42.84
2022-12-09T08:18:53.926Z,42.77
2022-12-09T08:21:27.708Z,42.72
2022-12-09T08:23:57.576Z,42.66
2022-12-09T08:26:27.847Z,42.80
2022-12-09T08:28:55.724Z,42.67
2022-12-09T08:31:25.654Z,42.58
2022-12-09T08:33:54.317Z,42.67
2022-12-09T08:36:28.421Z,42.70
2022-12-09T08:39:00.184Z,42.67
2022-12-09T08:41:38.150Z,42.56
2022-12-09T08:44:11.304Z,42.74
2022-12-09T08:46:41.156Z,42.73
2022-12-09T08:49:10.047Z,42.49
2022-12-09T08:51:38.279Z,42.81
2022-12-09T08:54:06.875Z,42.71
2022-12-09T08:56:34.610Z,42.69
2022-12-09T08:59:03.022Z,42.70
2022-12-09T09:01:34.668Z,42.63
2022-12-09T09:04:09.498Z,42.65
2022-12-09T09:06:39.516Z,42.60
2022-12-09T09:09:09.418Z,42.87
2022-12-09T09:11:38.466Z,42.67
2022-12-09T09:14:07.721Z,42.65
2022-12-09T09:16:37.387Z,42.75
2022-12-09T09:19:06.075Z,42.88
2022-12-09T09:21:35.722Z,42.83
2022-12-09T09:24:10.251Z,42.86
2022-12-09T09:26:43.499Z,42.80
2022-12-09T09:29:13.053Z,42.84
2022-12-09T09:31:41.437Z,42.99
2022-12-09T09:34:10.186Z,43.05
2022-12-09T09:36:37.743Z,43.30
2022-12-09T09:39:05.627Z,43.51
2022-12-09T09:41:42.856Z,43.37
2022-12-09T09:44:24.084Z,43.48
2022-12-09T09:46:53.517Z,43.60
2022-12-09T09:49:42.085Z,43.56
2022-12-09T09:52:16.963Z,43.64
2022-12-09T09:54:45.058Z,43.72
2022-12-09T09:58:07.932Z,43.58
2022-12-09T10:00:43.922Z,43.68
2022-12-09T10:03:33.834Z,43.69
2022-12-09T10:06:39.466Z,43.75
2022-12-09T10:09:37.151Z,43.57
2022-12-09T10:12:22.476Z,43.58
2022-12-09T10:15:09.825Z,43.68
2022-12-09T10:17:53.165Z,43.59
2022-12-09T10:20:25.391Z,43.65
2022-12-09T10:23:14.623Z,43.58
2022-12-09T10:25:48.984Z,43.56
2022-12-09T10:28:24.677Z,43.64
2022-12-09T10:30:54.629Z,43.72
2022-12-09T10:33:42.930Z,43.49
2022-12-09T10:36:24.237Z,43.63
2022-12-09T10:38:52.658Z,43.55
2022-12-09T10:41:58.496Z,43.54
2022-12-09T10:44:27.695Z,43.43
2022-12-09T10:47:05.178Z,43.40
2022-12-09T10:49:35.880Z,43.49
2022-12-09T10:52:05.348Z,43.50
2022-12-09T10:54:37.895Z,43.48
2022-12-09T10:57:08.139Z,43.54
2022-12-09T10:59:36.789Z,43.57
2022-12-09T11:02:20.460Z,43.52
2022-12-09T11:04:49.279Z,43.42
2022-12-09T11:07:24.897Z,43.46
2022-12-09T11:09:56.753Z,43.50
2022-12-09T11:12:30.869Z,43.54
2022-12-09T11:15:01.359Z,43.38
2022-12-09T11:17:32.575Z,43.45
2022-12-09T11:20:17.157Z,43.43
2022-12-09T11:22:46.175Z,43.50
2022-12-09T11:25:21.141Z,43.49
2022-12-09T11:27:53.092Z,43.57
2022-12-09T11:30:29.330Z,43.57
2022-12-09T11:33:09.079Z,43.57
2022-12-09T11:35:43.007Z,43.60
2022-12-09T11:38:35.015Z,43.46
2022-12-09T11:41:44.871Z,43.58
2022-12-09T11:44:32.596Z,43.44
2022-12-09T11:47:10.428Z,43.57
2022-12-09T11:50:03.244Z,43.42
2022-12-09T11:52:31.104Z,43.24
2022-12-09T11:55:16.580Z,43.57
2022-12-09T11:58:13.468Z,43.53
2022-12-09T12:00:54.655Z,43.42
2022-12-09T12:03:30.031Z,43.45
2022-12-09T12:06:01.144Z,43.40
2022-12-09T12:08:43.542Z,43.47
2022-12-09T12:11:16.989Z,43.49
2022-12-09T12:13:58.152Z,43.41
2022-12-09T12:16:54.397Z,43.32
2022-12-09T12:19:22.545Z,43.40
2022-12-09T12:22:01.559Z,43.25
2022-12-09T12:25:17.773Z,43.32
2022-12-09T12:28:16.304Z,43.37
2022-12-09T12:30:55.409Z,43.27
2022-12-09T12:34:00.509Z,43.23
2022-12-09T12:36:43.329Z,43.16
2022-12-09T12:39:47.856Z,43.18
2022-12-09T12:42:25.637Z,43.16
2022-12-09T12:45:29.472Z,43.11
2022-12-09T12:48:07.573Z,43.16
2022-12-09T12:50:53.596Z,43.06
2022-12-09T12:53:44.526Z,43.09
2022-12-09T12:56:34.396Z,43.04
2022-12-09T12:59:31.305Z,43.05
2022-12-09T13:02:32.288Z,42.96
2022-12-09T13:05:12.917Z,42.98
2022-12-09T13:07:48.350Z,43.18
2022-12-09T13:10:39.555Z,43.01
2022-12-09T13:13:18.865Z,42.98
2022-12-09T13:15:55.928Z,42.95
2022-12-09T13:18:31.636Z,42.93
2022-12-09T13:21:01.603Z,43.01
2022-12-09T13:24:13.526Z,42.90
2022-12-09T13:27:05.431Z,43.03
2022-12-09T13:29:37.255Z,42.90
2022-12-09T13:32:16.558Z,42.93
2022-12-09T13:34:51.371Z,42.96
2022-12-09T13:37:55.072Z,42.86
2022-12-09T13:40:28.330Z,42.88
2022-12-09T13:43:01.889Z,42.83
2022-12-09T13:45:47.981Z,42.84
2022-12-09T13:48:17.458Z,42.79
2022-12-09T13:50:59.748Z,42.79
2022-12-09T13:53:35.402Z,42.71
2022-12-09T13:56:06.775Z,42.80
2022-12-09T13:59:05.558Z,42.73
2022-12-09T14:01:41.967Z,42.83
2022-12-09T14:04:18.363Z,42.80
2022-12-09T14:06:45.656Z,42.92
2022-12-09T14:09:32.475Z,42.85
2022-12-09T14:12:03.245Z,42.64
2022-12-09T14:14:33.458Z,42.82
2022-12-09T14:17:03.769Z,42.77
2022-12-09T14:19:33.700Z,42.70
2022-12-09T14:22:19.724Z,42.84
2022-12-09T14:24:51.154Z,42.67
2022-12-09T14:27:31.902Z,42.63
2022-12-09T14:30:34.881Z,42.79
2022-12-09T14:33:02.764Z,42.59
2022-12-09T14:35:45.855Z,42.75
2022-12-09T14:41:45.340Z,42.95
2022-12-09T14:44:55.984Z,42.74
2022-12-09T14:47:30.250Z,42.84
2022-12-09T14:50:07.579Z,42.80
2022-12-09T14:52:35.981Z,42.74
2022-12-09T14:55:08.777Z,42.90
2022-12-09T14:57:44.805Z,42.85
2022-12-09T15:00:35.509Z,42.88
2022-12-09T15:03:32.253Z,42.77
2022-12-09T15:06:00.338Z,42.84
2022-12-09T15:08:31.829Z,42.76
2022-12-09T15:11:01.756Z,42.77
2022-12-09T15:13:30.727Z,42.98
2022-12-09T15:15:58.612Z,42.79
2022-12-09T15:18:26.941Z,42.74
2022-12-09T15:20:57.353Z,42.83
2022-12-09T15:23:34.593Z,42.75
2022-12-09T15:26:05.906Z,42.69
2022-12-09T15:28:36.796Z,42.64
2022-12-09T15:31:04.408Z,42.77
2022-12-09T15:33:41.169Z,42.83
2022-12-09T15:36:16.788Z,42.76
2022-12-09T15:38:50.713Z,42.84
2022-12-09T15:41:38.198Z,42.79
2022-12-09T15:44:14.440Z,42.77
2022-12-09T15:46:44.079Z,42.76
2022-12-09T15:49:15.921Z,42.67
2022-12-09T15:51:45.736Z,42.89
2022-12-09T15:54:20.892Z,42.75
2022-12-09T15:56:58.301Z,42.70
2022-12-09T15:59:42.827Z,42.61
2022-12-09T16:02:15.240Z,42.64
2022-12-09T16:04:46.942Z,42.51
2022-12-09T16:07:17.968Z,42.53
2022-12-09T16:10:11.439Z,42.58
2022-12-09T16:12:40.312Z,42.52
2022-12-09T16:15:13.408Z,42.53
2022-12-09T16:17:53.003Z,42.51
2022-12-09T16:20:39.201Z,42.42
2022-12-09T16:23:21.208Z,42.57
2022-12-09T16:25:50.196Z,42.55
2022-12-09T16:28:24.236Z,42.36
2022-12-09T16:31:00.374Z,42.46
2022-12-09T16:33:29.555Z,42.47
2022-12-09T16:36:04.621Z,42.55
2022-12-09T16:38:34.868Z,42.44
2022-12-09T16:41:10.436Z,42.68
2022-12-09T16:43:53.132Z,42.44
2022-12-09T16:46:20.868Z,42.55
2022-12-09T16:48:49.192Z,42.57
2022-12-09T16:51:24.439Z,42.40
2022-12-09T16:53:53.548Z,42.35
2022-12-09T16:56:30.201Z,42.61
2022-12-09T16:58:59.222Z,42.56
2022-12-09T17:01:35.197Z,42.59
2022-12-09T17:04:09.009Z,42.47
2022-12-09T17:06:36.598Z,42.63
2022-12-09T17:09:03.920Z,42.57
2022-12-09T17:11:32.027Z,42.50
2022-12-09T17:13:59.277Z,42.53
2022-12-09T17:16:27.093Z,42.45
2022-12-09T17:18:54.384Z,42.56
2022-12-09T17:21:22.242Z,42.40
2022-12-09T17:23:49.574Z,42.47
2022-12-09T17:26:19.969Z,42.54
2022-12-09T17:28:50.209Z,42.51
2022-12-09T17:31:23.595Z,42.55
2022-12-09T17:33:51.505Z,42.55
2022-12-09T17:36:19.663Z,42.43
2022-12-09T17:38:47.135Z,42.40
2022-12-09T17:41:18.911Z,42.50
2022-12-09T17:43:46.833Z,42.50
2022-12-09T17:46:15.406Z,42.32
2022-12-09T17:48:42.725Z,42.39
2022-12-09T17:51:13.864Z,42.36
2022-12-09T17:53:42.638Z,42.27
2022-12-09T17:56:16.699Z,42.49
2022-12-09T17:58:44.490Z,42.39
2022-12-09T18:01:18.126Z,42.33
2022-12-09T18:04:07.780Z,42.29
2022-12-09T18:06:34.349Z,42.20
2022-12-09T18:09:04.194Z,42.32
2022-12-09T18:11:32.287Z,42.26
2022-12-09T18:13:59.745Z,42.31
2022-12-09T18:16:27.548Z,42.32
2022-12-09T18:18:55.242Z,42.23
2022-12-09T18:21:23.703Z,42.28
2022-12-09T18:23:51.022Z,42.25
2022-12-09T18:26:19.846Z,42.19
2022-12-09T18:28:47.129Z,42.20
2022-12-09T18:31:19.038Z,42.18
2022-12-09T18:33:46.698Z,42.11
2022-12-09T18:36:17.283Z,42.18
2022-12-09T18:38:45.883Z,42.15
2022-12-09T18:41:20.624Z,42.09
2022-12-09T18:43:50.360Z,42.23
2022-12-09T18:46:25.237Z,41.96
2022-12-09T18:48:58.008Z,42.05
2022-12-09T18:51:26.307Z,42.05
2022-12-09T18:53:54.275Z,42.10
2022-12-09T18:56:21.905Z,42.16
2022-12-09T18:59:06.067Z,42.18
2022-12-09T19:01:39.185Z,42.18
2022-12-09T19:04:12.551Z,42.15
2022-12-09T19:06:42.420Z,42.09
2022-12-09T19:09:14.271Z,42.24
2022-12-09T19:11:43.712Z,42.13
2022-12-09T19:14:11.117Z,42.15
2022-12-09T19:16:38.835Z,42.15
2022-12-09T19:19:09.890Z,42.13
2022-12-09T19:21:38.839Z,42.25
2022-12-09T19:24:07.566Z,41.98
2022-12-09T19:26:36.498Z,41.91
2022-12-09T19:29:07.252Z,42.21
2022-12-09T19:31:42.410Z,42.03
2022-12-09T19:34:23.694Z,41.99
2022-12-09T19:36:53.711Z,42.00
2022-12-09T19:39:23.743Z,41.90
2022-12-09T19:41:51.617Z,42.01
2022-12-09T19:44:37.378Z,41.89
2022-12-09T19:47:08.009Z,42.04
2022-12-09T19:49:36.207Z,41.89
2022-12-09T19:52:04.212Z,41.86
2022-12-09T19:54:31.485Z,41.84
2022-12-09T19:56:59.369Z,41.88
2022-12-09T19:59:27.605Z,41.82
2022-12-09T20:01:55.624Z,41.97
2022-12-09T20:07:12.070Z,42.01
2022-12-09T20:09:39.725Z,41.96
2022-12-09T20:12:07.320Z,41.99
2022-12-09T20:14:34.757Z,41.86
2022-12-09T20:17:02.325Z,42.09
2022-12-09T20:19:31.257Z,41.96
2022-12-09T20:21:59.694Z,42.02
2022-12-09T20:24:27.342Z,42.06
2022-12-09T20:26:56.015Z,42.00
2022-12-09T20:29:23.376Z,41.98
2022-12-09T20:31:53.301Z,42.06
2022-12-09T20:34:20.633Z,41.93
2022-12-09T20:36:49.695Z,42.09
2022-12-09T20:39:20.388Z,41.96
2022-12-09T20:41:48.866Z,42.10
2022-12-09T20:44:18.433Z,41.82
2022-12-09T20:46:50.462Z,42.15
2022-12-09T20:49:20.375Z,42.18
2022-12-09T20:51:49.085Z,42.06
2022-12-09T20:54:17.773Z,42.06
2022-12-09T20:56:46.246Z,41.92
2022-12-09T20:59:13.845Z,41.99
2022-12-09T21:01:43.642Z,41.86
2022-12-09T21:04:11.190Z,42.04
2022-12-09T21:06:40.328Z,41.79
2022-12-09T21:09:10.896Z,41.84
2022-12-09T21:11:38.704Z,41.87
2022-12-09T21:14:07.110Z,41.83
2022-12-09T21:16:41.118Z,41.73
2022-12-09T21:19:12.383Z,41.78
2022-12-09T21:21:42.131Z,41.85
2022-12-09T21:24:11.383Z,41.73
2022-12-09T21:26:39.541Z,41.85
2022-12-09T21:29:07.381Z,41.87
2022-12-09T21:31:36.934Z,41.69
2022-12-09T21:34:06.053Z,41.58
2022-12-09T21:36:38.141Z,41.80
2022-12-09T21:39:06.785Z,41.83
2022-12-09T21:41:36.426Z,41.80
2022-12-09T21:44:05.028Z,41.77
2022-12-09T21:46:37.327Z,41.74
2022-12-09T21:49:06.008Z,41.65
2022-12-09T21:51:35.027Z,41.82
2022-12-09T21:54:03.236Z,41.67
2022-12-09T21:56:33.381Z,41.80
2022-12-09T21:59:01.712Z,41.64
2022-12-09T22:01:32.895Z,41.76
2022-12-09T22:04:01.686Z,41.65
2022-12-09T22:06:29.565Z,41.76
2022-12-09T22:09:01.217Z,41.65
2022-12-09T22:11:34.126Z,41.55
2022-12-09T22:14:02.230Z,41.54
2022-12-09T22:16:36.097Z,41.67
2022-12-09T22:19:05.585Z,41.62
2022-12-09T22:21:33.905Z,41.67
2022-12-09T22:24:03.857Z,41.74
2022-12-09T22:26:32.496Z,41.73
2022-12-09T22:29:01.887Z,41.75
2022-12-09T22:31:37.751Z,41.65
2022-12-09T22:34:13.368Z,41.74
2022-12-09T22:36:41.871Z,41.66
2022-12-09T22:39:13.872Z,41.63
2022-12-09T22:41:43.769Z,41.64
2022-12-09T22:44:15.817Z,41.63
2022-12-09T22:46:44.096Z,41.69
2022-12-09T22:49:13.881Z,41.94
2022-12-09T22:51:42.921Z,41.63
2022-12-09T22:54:11.339Z,41.50
2022-12-09T22:56:41.469Z,41.68
2022-12-09T22:59:09.337Z,41.62
2022-12-09T23:01:37.710Z,41.48
2022-12-09T23:04:06.807Z,41.52
2022-12-09T23:06:36.406Z,41.66
2022-12-09T23:09:04.582Z,41.57
2022-12-09T23:11:33.012Z,41.64
2022-12-09T23:14:00.739Z,41.66
2022-12-09T23:16:29.031Z,41.48
2022-12-09T23:18:58.361Z,41.53
2022-12-09T23:21:32.680Z,41.55
2022-12-09T23:24:02.374Z,41.48
2022-12-09T23:26:32.555Z,41.55
2022-12-09T23:29:01.312Z,41.43
2022-12-09T23:31:31.784Z,41.40
2022-12-09T23:33:59.901Z,41.61
2022-12-09T23:36:30.950Z,41.59
2022-12-09T23:38:59.840Z,41.60
2022-12-09T23:41:28.494Z,41.26
2022-12-09T23:43:55.957Z,41.34
2022-12-09T23:46:26.488Z,41.36
2022-12-09T23:48:55.577Z,41.71
2022-12-09T23:51:29.109Z,41.50
2022-12-09T23:54:00.319Z,41.48
2022-12-09T23:56:29.849Z,41.67
2022-12-09T23:59:00.013Z,41.70
